Startpagina
METAR-TAF:

METAR-TAF

Vliegvelden :

Bornholms Lufthavn

Rønne, Denemarken

breedte: 55-04N, lengte: 014-45E, hoogte: 16 m

Actueel weer

Dit bericht is 27 minuten geleden gemaakt, om 11:20 UTC
Wind 6 kt uit het noordnoordwesten, variërend tussen het westzuidwesten en het noordoosten
Temperatuur 14°C
Vochtigheid 72%
Druk 1026 hPa
Zicht 10 km of meer

METAR: EKRN 251120Z AUTO 33006KT 240V050 9999 SCT042/// 14/09 Q1026

Tijdstip: 13:47 (11:47 UTC)

Verwachting

Dit bericht is 20 minuten geleden gemaakt, om 11:27 UTC
Verwachting geldig van 25 om 12 UTC tot 25 om 21 UTC
Wind 10 kt uit het noordwesten
Zicht 10 km of meer
Verspreide wolken op 4000 ft
Wijzigt naar
van 25 om 20 UTC tot 25 om 21 UTC
Wind 8 kt uit het noordoosten
Gebroken wolken op 400 ft

TAF: EKRN 251127Z 2512/2521 32010KT 9999 SCT040 BECMG 2520/2521 05008KT BKN004

Waarnemingen en weersverwachtingen van meer dan 4000 vliegvelden (METAR en TAF).

De beschikbare stations zijn de gele en rode punten op de kaart.

Ga met uw muis naar het station om de naam te zien.

Klik dan om waarnemingen en weersverwachtingen te zien.

kaart wijzigen: klik op de groene knoppen met een zwart kruis om in te zoomen, op de groene knop met een streepje om uit te zoomen of op de groene pijlen voor aangrenzende kaarten.


METAR-TAF: